createdAt,value
2019-01-16T00:01:34.562Z,3.35
2019-01-16T00:04:15.396Z,3.40
2019-01-16T00:07:05.643Z,3.00
2019-01-16T00:09:40.185Z,3.27
2019-01-16T00:12:17.975Z,3.17
2019-01-16T00:14:49.779Z,3.30
2019-01-16T00:17:30.605Z,3.55
2019-01-16T00:20:08.295Z,3.10
2019-01-16T00:22:56.647Z,3.22
2019-01-16T00:25:43.966Z,3.10
2019-01-16T00:28:33.963Z,2.87
2019-01-16T00:31:11.891Z,3.65
2019-01-16T00:33:49.835Z,3.30
2019-01-16T00:36:30.628Z,3.00
2019-01-16T00:39:19.008Z,3.08
2019-01-16T00:41:53.669Z,3.17
2019-01-16T00:44:25.672Z,2.85
2019-01-16T00:47:06.411Z,3.83
2019-01-16T00:49:44.340Z,2.98
2019-01-16T00:52:34.272Z,3.33
2019-01-16T00:55:07.015Z,3.30
2019-01-16T00:57:41.660Z,3.30
2019-01-16T01:00:22.748Z,3.35
2019-01-16T01:03:10.751Z,3.30
2019-01-16T01:05:42.695Z,3.25
2019-01-16T01:08:17.267Z,3.42
2019-01-16T01:10:51.891Z,3.40
2019-01-16T01:13:38.568Z,3.42
2019-01-16T01:16:28.857Z,3.05
2019-01-16T01:19:06.730Z,3.40
2019-01-16T01:21:50.665Z,3.80
2019-01-16T01:24:22.496Z,3.27
2019-01-16T01:27:12.481Z,3.87
2019-01-16T01:29:47.127Z,3.47
2019-01-16T01:32:31.181Z,3.40
2019-01-16T01:35:18.345Z,4.03
2019-01-16T01:38:06.925Z,3.83
2019-01-16T01:40:54.985Z,3.37
2019-01-16T01:43:26.813Z,3.70
2019-01-16T01:46:13.908Z,3.70
2019-01-16T01:48:51.797Z,3.75
2019-01-16T01:51:23.695Z,3.50
2019-01-16T01:53:55.705Z,3.27
2019-01-16T01:56:27.581Z,3.67
2019-01-16T01:59:11.649Z,3.72
2019-01-16T02:01:43.448Z,3.80
2019-01-16T02:04:33.416Z,3.25
2019-01-16T02:07:05.355Z,4.08
2019-01-16T02:09:37.319Z,3.42
2019-01-16T02:12:15.273Z,3.60
2019-01-16T02:15:03.260Z,4.55
2019-01-16T02:17:50.060Z,3.15
2019-01-16T02:20:24.674Z,3.80
2019-01-16T02:23:08.117Z,3.67
2019-01-16T02:25:52.096Z,3.70
2019-01-16T02:28:23.883Z,3.70
2019-01-16T02:31:13.474Z,3.80
2019-01-16T02:34:01.692Z,3.60
2019-01-16T02:36:36.424Z,3.37
2019-01-16T02:39:11.521Z,3.40
2019-01-16T02:42:00.412Z,3.72
2019-01-16T02:44:32.227Z,3.83
2019-01-16T02:47:10.672Z,3.40
2019-01-16T02:49:54.834Z,3.58
2019-01-16T02:52:26.807Z,4.00
2019-01-16T02:55:01.668Z,3.52
2019-01-16T02:57:33.444Z,3.87
2019-01-16T03:00:06.817Z,3.80
2019-01-16T03:02:55.057Z,3.25
2019-01-16T03:05:26.895Z,3.42
2019-01-16T03:08:17.201Z,3.77
2019-01-16T03:11:05.461Z,3.65
2019-01-16T03:13:37.272Z,3.50
2019-01-16T03:16:12.302Z,4.08
2019-01-16T03:18:46.814Z,3.65
2019-01-16T03:21:21.497Z,3.87
2019-01-16T03:23:53.390Z,4.00
2019-01-16T03:26:25.316Z,5.10
2019-01-16T03:29:14.450Z,3.92
2019-01-16T03:31:49.329Z,4.00
2019-01-16T03:34:24.255Z,3.37
2019-01-16T03:37:12.469Z,3.90
2019-01-16T03:39:44.365Z,3.72
2019-01-16T03:42:19.349Z,3.75
2019-01-16T03:44:57.642Z,3.62
2019-01-16T03:47:29.484Z,4.03
2019-01-16T03:50:04.342Z,3.85
2019-01-16T03:52:42.143Z,4.22
2019-01-16T03:55:13.962Z,4.03
2019-01-16T03:58:01.089Z,4.25
2019-01-16T04:00:32.922Z,4.17
2019-01-16T04:03:13.456Z,3.77
2019-01-16T04:05:45.274Z,3.90
2019-01-16T04:08:17.080Z,3.75
2019-01-16T04:10:48.893Z,3.85
2019-01-16T04:13:24.444Z,3.75
2019-01-16T04:15:56.364Z,3.80
2019-01-16T04:18:30.978Z,3.87
2019-01-16T04:21:03.302Z,4.00
2019-01-16T04:23:51.485Z,4.45
2019-01-16T04:26:28.938Z,4.40
2019-01-16T04:29:01.240Z,4.30
2019-01-16T04:31:36.069Z,4.25
2019-01-16T04:34:10.725Z,4.78
2019-01-16T04:36:54.811Z,4.70
2019-01-16T04:39:29.445Z,4.30
2019-01-16T04:42:13.286Z,4.80
2019-01-16T04:44:50.924Z,4.30
2019-01-16T04:47:28.739Z,4.35
2019-01-16T04:50:07.933Z,4.40
2019-01-16T04:52:55.005Z,4.17
2019-01-16T04:55:32.851Z,4.28
2019-01-16T04:58:07.908Z,4.53
2019-01-16T05:00:48.906Z,5.80
2019-01-16T05:03:20.848Z,4.50
2019-01-16T05:05:52.752Z,4.45
2019-01-16T05:08:39.675Z,4.42
2019-01-16T05:11:23.175Z,4.12
2019-01-16T05:13:57.835Z,4.80
2019-01-16T05:16:46.681Z,4.05
2019-01-16T05:19:19.522Z,4.15
2019-01-16T05:22:00.685Z,4.30
2019-01-16T05:24:38.294Z,4.33
2019-01-16T05:27:13.092Z,5.47
2019-01-16T05:29:47.898Z,4.70
2019-01-16T05:32:19.738Z,5.03
2019-01-16T05:34:54.449Z,5.00
2019-01-16T05:37:29.744Z,5.50
2019-01-16T05:40:08.627Z,4.78
2019-01-16T05:42:40.504Z,5.00
2019-01-16T05:48:30.657Z,4.95
2019-01-16T05:51:11.471Z,5.40
2019-01-16T05:53:58.529Z,5.10
2019-01-16T05:56:32.931Z,4.85
2019-01-16T05:59:10.869Z,5.33
2019-01-16T06:01:48.494Z,7.95
2019-01-16T06:04:23.489Z,5.30
2019-01-16T06:07:00.980Z,5.17
2019-01-16T06:09:35.774Z,4.90
2019-01-16T06:12:24.262Z,5.28
2019-01-16T06:15:05.341Z,4.80
2019-01-16T06:17:46.013Z,5.92
2019-01-16T06:20:34.400Z,6.00
2019-01-16T06:23:06.273Z,5.42
2019-01-16T06:25:46.902Z,5.25
2019-01-16T06:28:24.455Z,5.20
2019-01-16T06:30:59.291Z,5.17
2019-01-16T06:33:47.559Z,5.55
2019-01-16T06:36:28.394Z,5.95
2019-01-16T06:39:00.322Z,5.53
2019-01-16T06:41:38.045Z,5.35
2019-01-16T06:44:26.141Z,6.40
2019-01-16T06:46:59.438Z,5.58
2019-01-16T06:49:37.343Z,6.40
2019-01-16T06:52:09.381Z,5.78
2019-01-16T06:54:53.739Z,8.35
2019-01-16T06:57:26.248Z,7.35
2019-01-16T06:59:58.096Z,8.53
2019-01-16T07:02:32.609Z,9.18
2019-01-16T07:05:04.548Z,8.88
2019-01-16T07:07:36.372Z,8.38
2019-01-16T07:10:13.229Z,7.70
2019-01-16T07:12:48.196Z,6.92
2019-01-16T07:15:36.587Z,7.55
2019-01-16T07:18:14.059Z,8.30
2019-01-16T07:21:06.225Z,8.20
2019-01-16T07:23:54.377Z,8.28
2019-01-16T07:26:35.526Z,8.75
2019-01-16T07:29:12.027Z,9.15
2019-01-16T07:31:47.061Z,8.13
2019-01-16T07:34:18.855Z,6.65
2019-01-16T07:36:53.722Z,5.67
2019-01-16T07:39:28.689Z,5.85
2019-01-16T07:42:16.687Z,7.22
2019-01-16T07:44:48.687Z,7.90
2019-01-16T07:47:26.445Z,7.65
2019-01-16T07:50:05.437Z,6.62
2019-01-16T07:52:43.329Z,6.35
2019-01-16T07:55:17.710Z,5.47
2019-01-16T07:57:54.630Z,6.70
2019-01-16T08:00:34.651Z,6.37
2019-01-16T08:03:24.860Z,6.87
2019-01-16T08:05:59.896Z,6.25
2019-01-16T08:08:47.775Z,4.70
2019-01-16T08:11:31.821Z,5.40
2019-01-16T08:14:06.357Z,7.58
2019-01-16T08:16:56.517Z,6.67
2019-01-16T08:19:44.767Z,6.45
2019-01-16T08:22:28.516Z,6.58
2019-01-16T08:25:12.244Z,5.58
2019-01-16T08:27:50.637Z,6.20
2019-01-16T08:30:22.598Z,6.70
2019-01-16T08:33:01.557Z,7.75
2019-01-16T08:35:39.302Z,7.65
2019-01-16T08:38:12.651Z,6.12
2019-01-16T08:40:56.846Z,6.97
2019-01-16T08:43:34.509Z,7.83
2019-01-16T08:46:09.160Z,11.60
2019-01-16T08:48:56.168Z,10.65
2019-01-16T08:51:40.210Z,9.45
2019-01-16T08:54:30.099Z,11.28
2019-01-16T08:57:04.715Z,6.70
2019-01-16T08:59:38.115Z,8.78
2019-01-16T09:02:21.785Z,8.60
2019-01-16T09:04:59.751Z,12.03
2019-01-16T09:07:37.438Z,6.00
2019-01-16T09:10:24.100Z,5.60
2019-01-16T09:13:05.312Z,5.80
2019-01-16T09:15:53.989Z,5.30
2019-01-16T09:18:42.293Z,5.97
2019-01-16T09:21:23.119Z,6.53
2019-01-16T09:24:03.953Z,6.35
2019-01-16T09:26:41.634Z,5.87
2019-01-16T09:29:25.610Z,5.65
2019-01-16T09:32:09.404Z,5.70
2019-01-16T09:34:50.039Z,5.70
2019-01-16T09:37:21.939Z,5.67
2019-01-16T09:39:53.764Z,6.00
2019-01-16T09:42:25.664Z,6.62
2019-01-16T09:44:57.513Z,8.75
2019-01-16T09:47:32.232Z,5.65
2019-01-16T09:50:06.750Z,5.62
2019-01-16T09:52:54.737Z,5.20
2019-01-16T09:55:43.117Z,5.55
2019-01-16T09:58:23.902Z,5.87
2019-01-16T10:01:12.458Z,5.85
2019-01-16T10:03:56.087Z,5.65
2019-01-16T10:06:33.924Z,5.83
2019-01-16T10:09:21.341Z,5.35
2019-01-16T10:11:53.150Z,5.50
2019-01-16T10:14:24.963Z,5.40
2019-01-16T10:16:56.971Z,4.75
2019-01-16T10:19:34.609Z,5.08
2019-01-16T10:22:22.737Z,5.50
2019-01-16T10:25:00.536Z,4.58
2019-01-16T10:27:44.232Z,4.92
2019-01-16T10:30:22.672Z,4.47
2019-01-16T10:33:00.265Z,4.10
2019-01-16T10:35:38.382Z,4.17
2019-01-16T10:38:26.778Z,4.65
2019-01-16T10:41:15.347Z,4.42
2019-01-16T10:43:47.432Z,5.12
2019-01-16T10:46:34.592Z,4.72
2019-01-16T10:49:09.861Z,4.20
2019-01-16T10:51:47.652Z,4.20
2019-01-16T10:54:19.616Z,4.55
2019-01-16T10:57:03.413Z,4.75
2019-01-16T10:59:35.217Z,4.90
2019-01-16T11:02:07.300Z,4.50
2019-01-16T11:04:44.964Z,4.00
2019-01-16T11:07:22.443Z,4.12
2019-01-16T11:09:54.714Z,4.92
2019-01-16T11:12:26.515Z,4.75
2019-01-16T11:14:58.329Z,4.33
2019-01-16T11:17:46.980Z,4.90
2019-01-16T11:20:37.212Z,4.20
2019-01-16T11:23:25.482Z,4.30
2019-01-16T11:25:57.330Z,4.75
2019-01-16T11:28:38.032Z,4.20
2019-01-16T11:31:09.914Z,4.30
2019-01-16T11:33:58.172Z,4.37
2019-01-16T11:36:32.804Z,4.40
2019-01-16T11:39:21.184Z,4.90
2019-01-16T11:41:55.449Z,4.60
2019-01-16T11:44:30.056Z,4.12
2019-01-16T11:47:04.639Z,4.37
2019-01-16T11:49:54.563Z,4.35
2019-01-16T11:52:29.089Z,4.58
2019-01-16T11:55:07.194Z,4.70
2019-01-16T11:57:39.032Z,4.37
2019-01-16T12:00:14.044Z,4.03
2019-01-16T12:02:48.715Z,4.33
2019-01-16T12:05:26.102Z,4.20
2019-01-16T12:08:14.389Z,3.85
2019-01-16T12:11:01.428Z,3.25
2019-01-16T12:13:39.145Z,3.40
2019-01-16T12:16:10.961Z,3.30
2019-01-16T12:18:48.858Z,3.70
2019-01-16T12:21:32.700Z,3.87
2019-01-16T12:24:04.528Z,3.90
2019-01-16T12:26:36.454Z,4.08
2019-01-16T12:29:14.318Z,3.83
2019-01-16T12:31:46.345Z,3.80
2019-01-16T12:34:18.227Z,4.00
2019-01-16T12:36:50.162Z,3.70
2019-01-16T12:39:33.661Z,3.95
2019-01-16T12:42:20.903Z,4.00
2019-01-16T12:44:55.832Z,3.67
2019-01-16T12:47:27.858Z,3.72
2019-01-16T12:50:08.682Z,3.77
2019-01-16T12:52:53.919Z,3.72
2019-01-16T12:55:23.645Z,4.17
2019-01-16T12:58:13.322Z,3.50
2019-01-16T13:00:41.328Z,3.75
2019-01-16T13:03:31.139Z,3.90
2019-01-16T13:06:19.446Z,3.65
2019-01-16T13:08:51.382Z,3.58
2019-01-16T13:11:38.221Z,3.70
2019-01-16T13:14:30.048Z,3.20
2019-01-16T13:16:59.761Z,3.30
2019-01-16T13:19:43.852Z,3.20
2019-01-16T13:22:15.669Z,2.85
2019-01-16T13:24:51.164Z,3.25
2019-01-16T13:27:35.388Z,3.65
2019-01-16T13:30:27.249Z,3.85
2019-01-16T13:32:59.072Z,3.33
2019-01-16T13:35:30.988Z,3.50
2019-01-16T13:38:05.936Z,4.03
2019-01-16T13:40:46.801Z,3.80
2019-01-16T13:43:24.517Z,4.80
2019-01-16T13:45:56.548Z,3.92
2019-01-16T13:48:37.963Z,3.58
2019-01-16T13:51:12.475Z,3.90
2019-01-16T13:54:02.724Z,4.20
2019-01-16T13:56:50.951Z,4.10
2019-01-16T13:59:25.836Z,3.70
2019-01-16T14:02:09.838Z,3.70
2019-01-16T14:04:41.672Z,3.90
2019-01-16T14:07:29.914Z,4.00
2019-01-16T14:10:01.855Z,3.90
2019-01-16T14:12:33.718Z,4.22
2019-01-16T14:15:30.316Z,3.20
2019-01-16T14:18:08.119Z,3.77
2019-01-16T14:20:48.725Z,3.50
2019-01-16T14:23:20.697Z,4.35
2019-01-16T14:26:04.688Z,3.77
2019-01-16T14:28:39.322Z,4.00
2019-01-16T14:31:23.350Z,3.67
2019-01-16T14:33:58.285Z,3.70
2019-01-16T14:36:30.244Z,4.50
2019-01-16T14:39:17.013Z,5.03
2019-01-16T14:41:58.505Z,5.03
2019-01-16T14:44:36.454Z,5.47
2019-01-16T14:47:12.616Z,4.80
2019-01-16T14:49:47.507Z,5.17
2019-01-16T14:52:25.398Z,4.75
2019-01-16T14:54:57.385Z,4.30
2019-01-16T14:57:41.237Z,4.53
2019-01-16T15:00:31.436Z,4.20
2019-01-16T15:03:18.194Z,4.22
2019-01-16T15:05:55.672Z,4.65
2019-01-16T15:08:39.924Z,4.55
2019-01-16T15:11:14.708Z,4.47
2019-01-16T15:13:49.451Z,4.10
2019-01-16T15:16:21.293Z,4.28
2019-01-16T15:19:11.424Z,4.50
2019-01-16T15:21:43.240Z,4.60
2019-01-16T15:24:30.493Z,4.70
2019-01-16T15:27:10.827Z,4.50
2019-01-16T15:29:54.840Z,5.03
2019-01-16T15:32:38.990Z,4.80
2019-01-16T15:35:11.543Z,4.90
2019-01-16T15:37:43.493Z,5.25
2019-01-16T15:40:21.995Z,5.45
2019-01-16T15:42:53.801Z,5.22
2019-01-16T15:45:31.890Z,5.55
2019-01-16T15:48:13.190Z,5.62
2019-01-16T15:50:54.061Z,5.87
2019-01-16T15:53:38.154Z,6.72
2019-01-16T15:56:12.822Z,11.85
2019-01-16T15:58:47.715Z,22.15
2019-01-16T16:01:29.006Z,22.30
2019-01-16T16:04:01.103Z,20.90
2019-01-16T16:06:47.956Z,18.95
2019-01-16T16:09:25.282Z,13.22
2019-01-16T16:11:59.672Z,9.30
2019-01-16T16:14:31.597Z,8.20
2019-01-16T16:17:09.453Z,7.17
2019-01-16T16:19:56.225Z,6.40
2019-01-16T16:22:43.385Z,6.37
2019-01-16T16:25:15.263Z,6.25
2019-01-16T16:27:47.255Z,6.22
2019-01-16T16:30:19.167Z,6.20
2019-01-16T16:32:51.725Z,6.65
2019-01-16T16:35:29.952Z,6.47
2019-01-16T16:38:02.962Z,8.28
2019-01-16T16:40:49.817Z,9.15
2019-01-16T16:43:33.719Z,8.33
2019-01-16T16:46:14.602Z,6.70
2019-01-16T16:49:03.046Z,6.28
2019-01-16T16:51:44.425Z,6.53
2019-01-16T16:54:21.945Z,5.80
2019-01-16T16:56:53.768Z,6.53
2019-01-16T16:59:40.246Z,9.45
2019-01-16T17:05:56.098Z,8.85
2019-01-16T17:08:57.538Z,28.90
2019-01-16T17:11:41.777Z,17.07
2019-01-16T17:14:25.465Z,12.30
2019-01-16T17:17:08.041Z,11.95
2019-01-16T17:20:09.921Z,14.68
2019-01-16T17:26:25.611Z,18.02
2019-01-16T17:29:27.635Z,14.60
2019-01-16T17:32:08.268Z,13.28
2019-01-16T17:34:40.116Z,11.68
2019-01-16T17:37:28.312Z,17.62
2019-01-16T17:40:12.028Z,13.93
2019-01-16T17:43:00.166Z,11.63
2019-01-16T17:45:32.195Z,10.88
2019-01-16T17:48:04.036Z,9.93
2019-01-16T17:50:45.247Z,10.38
2019-01-16T17:53:19.608Z,9.45
2019-01-16T17:56:08.017Z,9.75
2019-01-16T17:58:52.083Z,9.83
2019-01-16T18:01:40.169Z,12.35
2019-01-16T18:04:18.213Z,13.45
2019-01-16T18:06:50.239Z,12.90
2019-01-16T18:09:28.507Z,12.25
2019-01-16T18:12:12.675Z,12.40
2019-01-16T18:14:59.447Z,12.07
2019-01-16T18:17:34.560Z,11.53
2019-01-16T18:20:18.520Z,10.68
2019-01-16T18:22:53.071Z,11.15
2019-01-16T18:25:34.110Z,11.68
2019-01-16T18:28:12.648Z,12.90
2019-01-16T18:30:44.501Z,14.53
2019-01-16T18:33:16.337Z,12.98
2019-01-16T18:35:48.196Z,13.05
2019-01-16T18:38:25.799Z,12.45
2019-01-16T18:40:57.733Z,11.93
2019-01-16T18:43:46.049Z,17.92
2019-01-16T18:46:17.883Z,29.50
2019-01-16T18:48:49.811Z,23.98
2019-01-16T18:51:39.956Z,23.50
2019-01-16T18:54:11.811Z,16.48
2019-01-16T18:56:59.973Z,10.53
2019-01-16T18:59:48.222Z,16.60
2019-01-16T19:02:20.048Z,13.00
2019-01-16T19:04:58.153Z,12.63
2019-01-16T19:07:32.722Z,12.03
2019-01-16T19:10:07.841Z,19.40
2019-01-16T19:12:39.654Z,29.87
2019-01-16T19:15:24.637Z,26.97
2019-01-16T19:18:02.282Z,23.12
2019-01-16T19:20:52.466Z,21.15
2019-01-16T19:23:40.591Z,16.07
2019-01-16T19:26:12.603Z,15.23
2019-01-16T19:29:00.559Z,15.18
2019-01-16T19:31:32.472Z,14.10
2019-01-16T19:34:13.404Z,14.20
2019-01-16T19:37:03.507Z,15.10
2019-01-16T19:39:41.105Z,14.18
2019-01-16T19:42:29.359Z,14.33
2019-01-16T19:45:17.673Z,18.95
2019-01-16T19:48:07.964Z,21.02
2019-01-16T19:50:42.612Z,16.73
2019-01-16T19:53:23.709Z,16.30
2019-01-16T19:55:58.390Z,15.48
2019-01-16T19:58:29.633Z,14.87
2019-01-16T20:01:01.484Z,15.35
2019-01-16T20:03:45.368Z,16.27
2019-01-16T20:06:23.228Z,17.15
2019-01-16T20:09:01.211Z,15.28
2019-01-16T20:11:35.829Z,15.55
2019-01-16T20:14:19.672Z,15.10
2019-01-16T20:16:54.313Z,15.13
2019-01-16T20:19:28.904Z,12.47
2019-01-16T20:22:00.839Z,12.00
2019-01-16T20:24:42.018Z,12.95
2019-01-16T20:27:16.933Z,15.23
2019-01-16T20:29:48.945Z,14.50
2019-01-16T20:32:39.384Z,14.70
2019-01-16T20:35:20.458Z,13.68
2019-01-16T20:38:03.748Z,13.30
2019-01-16T20:40:51.605Z,11.97
2019-01-16T20:43:23.449Z,12.95
2019-01-16T20:45:55.889Z,13.18
2019-01-16T20:48:33.913Z,13.78
2019-01-16T20:51:11.452Z,12.40
2019-01-16T20:53:43.290Z,15.68
2019-01-16T20:56:15.171Z,17.02
2019-01-16T20:58:49.735Z,15.25
2019-01-16T21:01:23.765Z,12.95
2019-01-16T21:04:10.920Z,11.93
2019-01-16T21:06:54.951Z,10.75
2019-01-16T21:09:26.790Z,11.97
2019-01-16T21:11:58.653Z,11.05
2019-01-16T21:14:48.754Z,11.18
2019-01-16T21:17:38.221Z,11.20
2019-01-16T21:20:21.445Z,10.72
2019-01-16T21:22:58.853Z,10.43
2019-01-16T21:25:46.213Z,10.98
2019-01-16T21:28:36.533Z,10.98
2019-01-16T21:31:07.777Z,11.53
2019-01-16T21:33:55.072Z,12.13
2019-01-16T21:36:27.078Z,12.35
2019-01-16T21:39:10.973Z,12.50
2019-01-16T21:41:54.931Z,14.73
2019-01-16T21:44:43.682Z,18.10
2019-01-16T21:47:21.396Z,16.70
2019-01-16T21:50:09.565Z,15.72
2019-01-16T21:52:47.202Z,14.70
2019-01-16T21:55:22.034Z,12.43
2019-01-16T21:57:56.564Z,11.80
2019-01-16T22:00:40.662Z,11.45
2019-01-16T22:03:29.241Z,12.33
2019-01-16T22:06:16.198Z,10.82
2019-01-16T22:08:56.911Z,11.97
2019-01-16T22:11:28.804Z,11.00
2019-01-16T22:14:17.218Z,11.83
2019-01-16T22:16:52.036Z,12.07
2019-01-16T22:19:41.917Z,10.50
2019-01-16T22:22:28.920Z,10.55
2019-01-16T22:25:06.457Z,10.32
2019-01-16T22:27:37.808Z,10.20
2019-01-16T22:30:16.635Z,10.70
2019-01-16T22:33:03.097Z,10.77
2019-01-16T22:35:51.437Z,11.65
2019-01-16T22:38:41.913Z,11.35
2019-01-16T22:41:19.534Z,10.35
2019-01-16T22:47:18.344Z,10.53
2019-01-16T22:49:53.425Z,11.12
2019-01-16T22:52:27.783Z,12.75
2019-01-16T22:55:02.310Z,11.45
2019-01-16T22:57:46.428Z,10.93
2019-01-16T23:00:40.435Z,11.12
2019-01-16T23:03:24.200Z,12.73
2019-01-16T23:06:02.023Z,17.73
2019-01-16T23:08:42.907Z,18.75
2019-01-16T23:11:14.149Z,16.53
2019-01-16T23:14:02.412Z,14.47
2019-01-16T23:16:33.649Z,12.65
2019-01-16T23:19:11.446Z,12.03
2019-01-16T23:21:55.365Z,11.38
2019-01-16T23:24:30.108Z,11.05
2019-01-16T23:27:11.005Z,10.88
2019-01-16T23:29:42.931Z,10.93
2019-01-16T23:32:20.978Z,11.70
2019-01-16T23:34:59.025Z,12.40
2019-01-16T23:37:36.745Z,13.88
2019-01-16T23:40:19.471Z,15.05
2019-01-16T23:43:00.262Z,17.02
2019-01-16T23:45:34.789Z,15.25
2019-01-16T23:48:06.743Z,14.58
2019-01-16T23:50:38.020Z,13.60
2019-01-16T23:53:18.747Z,15.38
2019-01-16T23:56:06.987Z,14.93
2019-01-16T23:58:50.025Z,12.33
